createdAt,value
2018-01-19T00:00:01.391Z,5.02
2018-01-19T00:01:01.460Z,5.05
2018-01-19T00:02:01.168Z,4.94
2018-01-19T00:03:01.437Z,4.78
2018-01-19T00:04:01.193Z,4.84
2018-01-19T00:05:01.464Z,4.73
2018-01-19T00:06:01.280Z,4.82
2018-01-19T00:07:01.239Z,4.89
2018-01-19T00:08:01.249Z,4.73
2018-01-19T00:09:01.520Z,4.71
2018-01-19T00:10:01.279Z,4.74
2018-01-19T00:11:01.292Z,4.84
2018-01-19T00:12:01.309Z,4.94
2018-01-19T00:13:01.324Z,4.89
2018-01-19T00:14:01.338Z,4.87
2018-01-19T00:15:01.598Z,4.92
2018-01-19T00:16:01.360Z,4.94
2018-01-19T00:17:01.374Z,4.93
2018-01-19T00:18:01.136Z,5.08
2018-01-19T00:19:01.649Z,4.89
2018-01-19T00:20:01.670Z,4.94
2018-01-19T00:21:01.727Z,5.17
2018-01-19T00:22:01.445Z,5.12
2018-01-19T00:23:01.456Z,5
2018-01-19T00:24:01.468Z,4.93
2018-01-19T00:25:01.232Z,4.84
2018-01-19T00:26:01.500Z,4.92
2018-01-19T00:27:01.514Z,5.02
2018-01-19T00:28:01.527Z,4.97
2018-01-19T00:29:01.798Z,4.93
2018-01-19T00:30:01.298Z,5.02
2018-01-19T00:31:01.563Z,5.11
2018-01-19T00:32:01.827Z,5.2
2018-01-19T00:33:01.591Z,4.97
2018-01-19T00:34:01.607Z,5.08
2018-01-19T00:35:01.621Z,5.12
2018-01-19T00:36:01.432Z,5.25
2018-01-19T00:37:01.647Z,5.05
2018-01-19T00:38:01.916Z,5.14
2018-01-19T00:39:01.675Z,5.26
2018-01-19T00:40:01.689Z,5.11
2018-01-19T00:41:01.710Z,5.23
2018-01-19T00:42:01.465Z,5.05
2018-01-19T00:43:01.479Z,5
2018-01-19T00:44:01.998Z,5.1
2018-01-19T00:45:02.038Z,5.28
2018-01-19T00:46:02.517Z,5.28
2018-01-19T00:47:01.783Z,5.25
2018-01-19T00:48:01.802Z,5.25
2018-01-19T00:49:01.812Z,5.28
2018-01-19T00:50:02.079Z,5.28
2018-01-19T00:51:01.888Z,5.26
2018-01-19T00:52:01.602Z,5.43
2018-01-19T00:53:02.121Z,5.47
2018-01-19T00:54:01.630Z,5.59
2018-01-19T00:55:02.152Z,5.46
2018-01-19T00:56:01.908Z,5.54
2018-01-19T00:57:01.921Z,5.64
2018-01-19T00:58:01.941Z,5.61
2018-01-19T00:59:01.946Z,5.64
2018-01-19T01:00:02.225Z,5.61
2018-01-19T01:01:02.237Z,5.64
2018-01-19T01:02:02.010Z,5.72
2018-01-19T01:03:02.011Z,5.64
2018-01-19T01:04:02.269Z,5.65
2018-01-19T01:05:01.779Z,5.75
2018-01-19T01:06:02.051Z,5.62
2018-01-19T01:07:02.394Z,5.65
2018-01-19T01:08:02.328Z,5.64
2018-01-19T01:09:02.342Z,5.71
2018-01-19T01:10:02.124Z,5.71
2018-01-19T01:11:01.864Z,5.71
2018-01-19T01:12:01.882Z,5.84
2018-01-19T01:13:02.148Z,5.83
2018-01-19T01:14:01.909Z,5.9
2018-01-19T01:15:02.175Z,5.76
2018-01-19T01:16:02.193Z,5.73
2018-01-19T01:17:02.206Z,5.65
2018-01-19T01:18:02.222Z,5.75
2018-01-19T01:19:02.496Z,5.73
2018-01-19T01:20:02.246Z,5.79
2018-01-19T01:21:02.263Z,5.76
2018-01-19T01:22:02.585Z,5.84
2018-01-19T01:23:02.290Z,5.91
2018-01-19T01:24:02.557Z,5.82
2018-01-19T01:25:02.577Z,5.73
2018-01-19T01:26:02.586Z,5.64
2018-01-19T01:27:02.347Z,5.5
2018-01-19T01:28:02.364Z,5.64
2018-01-19T01:29:02.377Z,5.59
2018-01-19T01:30:02.400Z,5.53
2018-01-19T02:01:54.793Z,5.39
2018-01-19T02:02:45.639Z,5.41
2018-01-19T02:03:45.661Z,5.39
2018-01-19T02:04:45.663Z,5.26
2018-01-19T02:05:45.680Z,5.35
2018-01-19T02:06:45.706Z,5.35
2018-01-19T02:07:45.458Z,5.44
2018-01-19T02:08:45.719Z,5.33
2018-01-19T02:09:45.486Z,5.12
2018-01-19T02:10:45.497Z,5.05
2018-01-19T02:11:45.525Z,5.02
2018-01-19T02:12:45.777Z,4.96
2018-01-19T02:13:45.832Z,5.08
2018-01-19T02:14:45.802Z,5.08
2018-01-19T02:15:45.822Z,5.15
2018-01-19T02:16:45.633Z,5.05
2018-01-19T02:17:45.648Z,4.96
2018-01-19T02:18:45.612Z,5.02
2018-01-19T02:19:45.623Z,4.92
2018-01-19T02:20:45.639Z,4.96
2018-01-19T02:21:45.904Z,5.04
2018-01-19T02:22:45.678Z,4.99
2018-01-19T02:23:45.678Z,5
2018-01-19T02:24:45.693Z,4.93
2018-01-19T02:25:45.707Z,4.94
2018-01-19T02:26:45.973Z,4.89
2018-01-19T02:27:45.733Z,4.94
2018-01-19T02:28:45.498Z,4.77
2018-01-19T02:29:45.763Z,4.7
2018-01-19T02:30:45.779Z,4.7
2018-01-19T02:31:45.797Z,4.74
2018-01-19T02:32:46.112Z,4.74
2018-01-19T02:33:45.819Z,4.75
2018-01-19T02:34:45.842Z,4.74
2018-01-19T02:35:45.602Z,4.67
2018-01-19T02:36:45.860Z,4.66
2018-01-19T02:37:45.875Z,4.55
2018-01-19T02:38:45.637Z,4.53
2018-01-19T02:39:46.163Z,4.59
2018-01-19T02:40:45.949Z,4.6
2018-01-19T02:41:45.939Z,4.63
2018-01-19T02:42:45.943Z,4.73
2018-01-19T02:43:46.209Z,4.59
2018-01-19T02:44:46.221Z,4.75
2018-01-19T02:45:45.984Z,4.67
2018-01-19T02:46:46.279Z,4.74
2018-01-19T02:47:46.061Z,4.8
2018-01-19T02:48:46.031Z,4.82
2018-01-19T02:49:46.038Z,4.66
2018-01-19T02:50:45.802Z,4.73
2018-01-19T02:51:46.081Z,4.63
2018-01-19T02:52:45.829Z,4.8
2018-01-19T02:53:46.095Z,4.77
2018-01-19T02:54:46.357Z,4.7
2018-01-19T02:55:46.371Z,4.75
2018-01-19T02:56:45.891Z,4.73
2018-01-19T02:57:45.897Z,4.63
2018-01-19T02:58:46.411Z,4.67
2018-01-19T02:59:46.190Z,4.77
2018-01-19T03:00:46.442Z,4.74
2018-01-19T03:01:46.201Z,4.78
2018-01-19T03:02:46.012Z,4.68
2018-01-19T03:03:46.232Z,4.77
2018-01-19T03:04:46.242Z,4.74
2018-01-19T03:05:46.007Z,4.68
2018-01-19T03:06:46.525Z,4.86
2018-01-19T03:07:46.283Z,4.75
2018-01-19T03:08:46.564Z,4.67
2018-01-19T03:09:46.315Z,4.71
2018-01-19T03:10:46.583Z,4.74
2018-01-19T03:11:46.340Z,4.77
2018-01-19T03:12:46.603Z,4.71
2018-01-19T03:13:46.617Z,4.8
2018-01-19T03:14:46.384Z,4.8
2018-01-19T03:15:46.394Z,4.92
2018-01-19T03:16:46.429Z,4.99
2018-01-19T03:17:46.724Z,4.89
2018-01-19T03:18:46.692Z,4.89
2018-01-19T03:19:46.698Z,4.87
2018-01-19T03:20:46.467Z,4.86
2018-01-19T03:21:46.727Z,5.02
2018-01-19T03:22:46.499Z,4.96
2018-01-19T03:23:46.263Z,4.84
2018-01-19T03:24:46.519Z,4.89
2018-01-19T03:25:46.797Z,4.71
2018-01-19T03:26:46.799Z,4.92
2018-01-19T03:27:46.561Z,4.87
2018-01-19T03:28:46.322Z,4.8
2018-01-19T03:29:46.340Z,4.73
2018-01-19T03:30:46.602Z,4.77
2018-01-19T03:31:46.869Z,4.73
2018-01-19T03:32:46.629Z,4.7
2018-01-19T03:33:46.896Z,4.7
2018-01-19T03:34:46.955Z,4.8
2018-01-19T03:35:46.919Z,4.78
2018-01-19T03:36:46.937Z,4.7
2018-01-19T03:37:46.448Z,4.82
2018-01-19T03:38:46.966Z,4.74
2018-01-19T03:39:46.479Z,4.74
2018-01-19T03:40:46.740Z,4.86
2018-01-19T03:41:46.752Z,4.87
2018-01-19T03:42:46.767Z,4.77
2018-01-19T03:43:46.782Z,4.74
2018-01-19T03:44:46.545Z,4.73
2018-01-19T03:45:47.058Z,4.71
2018-01-19T03:46:47.072Z,4.89
2018-01-19T03:47:46.584Z,4.93
2018-01-19T03:48:46.849Z,4.99
2018-01-19T03:49:47.914Z,4.9
2018-01-19T03:50:46.626Z,5.05
2018-01-19T03:51:46.891Z,4.94
2018-01-19T03:52:46.910Z,4.92
2018-01-19T03:53:46.667Z,4.89
2018-01-19T03:54:46.681Z,5.04
2018-01-19T03:55:47.198Z,5.02
2018-01-19T03:56:46.977Z,5.05
2018-01-19T03:57:47.223Z,5.05
2018-01-19T03:58:46.986Z,5.02
2018-01-19T03:59:47.000Z,5.05
2018-01-19T04:00:46.761Z,4.92
2018-01-19T04:01:47.030Z,4.87
2018-01-19T04:02:47.292Z,4.77
2018-01-19T04:03:47.059Z,4.84
2018-01-19T04:04:47.070Z,4.82
2018-01-19T04:05:47.080Z,4.94
2018-01-19T04:06:47.096Z,4.9
2018-01-19T04:07:47.157Z,4.93
2018-01-19T04:08:47.377Z,4.86
2018-01-19T04:09:47.187Z,4.89
2018-01-19T04:10:47.403Z,4.92
2018-01-19T04:11:47.164Z,4.86
2018-01-19T04:12:47.182Z,4.84
2018-01-19T04:13:47.215Z,4.93
2018-01-19T04:14:47.211Z,5.05
2018-01-19T04:15:47.474Z,4.9
2018-01-19T04:16:46.981Z,4.92
2018-01-19T04:17:47.502Z,4.99
2018-01-19T04:18:47.262Z,4.97
2018-01-19T04:19:47.026Z,4.92
2018-01-19T04:20:47.326Z,4.92
2018-01-19T04:21:47.553Z,4.9
2018-01-19T04:22:47.068Z,4.92
2018-01-19T04:23:47.584Z,4.93
2018-01-19T04:24:47.649Z,4.82
2018-01-19T04:25:47.654Z,4.87
2018-01-19T04:26:47.620Z,4.94
2018-01-19T04:27:47.635Z,4.8
2018-01-19T04:28:47.653Z,4.93
2018-01-19T04:29:47.161Z,4.87
2018-01-19T04:30:47.432Z,4.94
2018-01-19T04:31:47.691Z,4.89
2018-01-19T04:32:47.218Z,4.9
2018-01-19T04:33:47.217Z,4.92
2018-01-19T04:34:47.532Z,4.93
2018-01-19T04:35:47.249Z,4.89
2018-01-19T04:36:47.759Z,4.89
2018-01-19T04:37:47.273Z,4.94
2018-01-19T04:38:47.784Z,5.04
2018-01-19T04:39:47.599Z,4.99
2018-01-19T04:40:47.326Z,5.05
2018-01-19T04:41:47.835Z,4.97
2018-01-19T04:42:47.590Z,4.94
2018-01-19T04:43:47.613Z,4.87
2018-01-19T04:44:47.869Z,4.92
2018-01-19T04:45:47.882Z,4.9
2018-01-19T04:46:47.898Z,4.86
2018-01-19T04:47:47.914Z,4.92
2018-01-19T04:48:47.672Z,4.94
2018-01-19T04:49:47.743Z,4.93
2018-01-19T04:50:47.452Z,5
2018-01-19T04:51:47.464Z,4.93
2018-01-19T04:52:47.981Z,4.92
2018-01-19T04:53:47.995Z,4.86
2018-01-19T04:54:47.813Z,4.87
2018-01-19T04:55:48.024Z,4.94
2018-01-19T04:56:48.038Z,4.92
2018-01-19T04:57:47.811Z,4.89
2018-01-19T04:58:47.816Z,4.82
2018-01-19T04:59:47.826Z,4.89
2018-01-19T05:00:48.093Z,4.87
2018-01-19T05:01:47.858Z,4.89
2018-01-19T05:02:47.872Z,4.8
2018-01-19T05:03:47.882Z,4.75
2018-01-19T05:04:47.645Z,4.75
2018-01-19T05:05:47.910Z,4.71
2018-01-19T05:06:48.185Z,4.73
2018-01-19T05:07:48.190Z,4.71
2018-01-19T05:08:47.953Z,4.66
2018-01-19T05:09:48.266Z,4.62
2018-01-19T05:10:47.974Z,4.63
2018-01-19T05:11:47.992Z,4.52
2018-01-19T05:12:47.753Z,4.49
2018-01-19T05:13:48.271Z,4.63
2018-01-19T05:14:48.030Z,4.58
2018-01-19T05:15:48.041Z,4.6
2018-01-19T05:16:48.311Z,4.55
2018-01-19T05:17:48.325Z,4.52
2018-01-19T05:18:47.832Z,4.62
2018-01-19T05:19:48.349Z,4.58
2018-01-19T05:20:48.361Z,4.4
2018-01-19T05:21:48.191Z,4.48
2018-01-19T05:22:48.138Z,4.45
2018-01-19T05:23:48.401Z,4.53
2018-01-19T05:24:47.963Z,4.53
2018-01-19T05:25:48.181Z,4.42
2018-01-19T05:26:48.191Z,4.48
2018-01-19T05:27:48.212Z,4.49
2018-01-19T05:28:48.219Z,4.58
2018-01-19T05:29:47.979Z,4.62
2018-01-19T05:30:48.491Z,4.53
2018-01-19T05:31:48.010Z,4.45
2018-01-19T05:32:48.520Z,4.62
2018-01-19T05:33:48.297Z,4.5
2018-01-19T05:34:48.297Z,4.48
2018-01-19T05:35:48.562Z,4.44
2018-01-19T05:36:48.324Z,4.49
2018-01-19T05:37:48.403Z,4.49
2018-01-19T05:38:48.350Z,4.44
2018-01-19T05:39:48.418Z,4.41
2018-01-19T05:40:48.380Z,4.41
2018-01-19T05:41:48.397Z,4.5
2018-01-19T05:42:48.409Z,4.45
2018-01-19T05:43:48.673Z,4.5
2018-01-19T05:44:48.438Z,4.48
2018-01-19T05:45:48.705Z,4.52
2018-01-19T05:46:48.466Z,4.58
2018-01-19T05:47:48.727Z,4.45
2018-01-19T05:48:48.538Z,4.48
2018-01-19T05:49:48.502Z,4.41
2018-01-19T05:50:48.521Z,4.38
2018-01-19T05:51:48.277Z,4.42
2018-01-19T05:52:48.543Z,4.42
2018-01-19T05:53:48.810Z,4.3
2018-01-19T05:54:48.872Z,4.22
2018-01-19T05:55:48.612Z,4.3
2018-01-19T05:56:48.345Z,4.28
2018-01-19T05:57:48.359Z,4.34
2018-01-19T05:58:48.621Z,4.38
2018-01-19T05:59:48.888Z,4.35
2018-01-19T06:00:48.653Z,4.26
2018-01-19T06:01:48.413Z,4.3
2018-01-19T06:02:48.678Z,4.26
2018-01-19T06:03:48.441Z,4.28
2018-01-19T06:04:48.705Z,4.31
2018-01-19T06:05:48.721Z,4.16
2018-01-19T06:06:48.986Z,4.19
2018-01-19T06:07:48.743Z,4.16
2018-01-19T06:08:49.008Z,4.12
2018-01-19T06:09:49.176Z,4.22
2018-01-19T06:10:49.033Z,4.19
2018-01-19T06:11:48.796Z,4.24
2018-01-19T06:12:49.060Z,4.13
2018-01-19T06:13:48.827Z,4.2
2018-01-19T06:14:49.086Z,4.24
2018-01-19T06:15:48.852Z,4.3
2018-01-19T06:16:48.865Z,4.32
2018-01-19T06:17:48.880Z,4.34
2018-01-19T06:18:49.151Z,4.37
2018-01-19T06:19:49.003Z,4.22
2018-01-19T06:20:48.930Z,4.17
2018-01-19T06:21:48.935Z,4.2
2018-01-19T06:22:48.944Z,4.2
2018-01-19T06:23:48.704Z,4.19
2018-01-19T06:24:49.020Z,4.34
2018-01-19T06:25:48.986Z,4.23
2018-01-19T06:26:48.997Z,4.22
2018-01-19T06:27:49.264Z,4.31
2018-01-19T06:28:49.029Z,4.41
2018-01-19T06:29:49.035Z,4.16
2018-01-19T06:30:49.048Z,4.16
2018-01-19T06:31:49.063Z,4.1
2018-01-19T06:32:49.077Z,4.16
2018-01-19T06:33:49.088Z,4.16
2018-01-19T06:34:49.366Z,4.28
2018-01-19T06:35:49.122Z,4.32
2018-01-19T06:36:48.892Z,4.24
2018-01-19T06:37:49.150Z,4.32
2018-01-19T06:38:49.407Z,4.24
2018-01-19T06:39:48.967Z,4.35
2018-01-19T06:40:49.432Z,4.26
2018-01-19T06:41:49.465Z,4.34
2018-01-19T06:42:49.465Z,4.2
2018-01-19T06:43:49.225Z,4.24
2018-01-19T06:44:49.487Z,4.23
2018-01-19T06:45:49.503Z,4.19
2018-01-19T06:46:49.262Z,4.23
2018-01-19T06:47:49.525Z,4.17
2018-01-19T06:48:49.288Z,4.3
2018-01-19T06:49:49.555Z,4.32
2018-01-19T06:50:49.566Z,4.26
2018-01-19T06:51:49.328Z,4.26
2018-01-19T06:52:49.344Z,4.34
2018-01-19T06:53:49.108Z,4.14
2018-01-19T06:54:49.674Z,4.19
2018-01-19T06:55:49.383Z,4.2
2018-01-19T06:56:49.655Z,4.28
2018-01-19T06:57:49.486Z,4.17
2018-01-19T06:58:49.430Z,4.28
2018-01-19T06:59:49.688Z,4.31
2018-01-19T07:00:49.759Z,4.31
2018-01-19T07:01:49.466Z,4.31
2018-01-19T07:02:49.480Z,4.2
2018-01-19T07:03:49.742Z,4.19
2018-01-19T07:04:49.505Z,4.23
2018-01-19T07:05:49.520Z,4.31
2018-01-19T07:06:49.787Z,4.35
2018-01-19T07:07:49.543Z,4.28
2018-01-19T07:08:49.812Z,4.24
2018-01-19T07:09:49.625Z,4.3
2018-01-19T07:10:49.330Z,4.3
2018-01-19T07:11:49.592Z,4.37
2018-01-19T07:12:49.869Z,4.28
2018-01-19T07:13:49.625Z,4.34
2018-01-19T07:14:49.896Z,4.24
2018-01-19T07:15:49.905Z,4.34
2018-01-19T07:16:49.917Z,4.32
2018-01-19T07:17:49.697Z,4.41
2018-01-19T07:18:49.704Z,4.23
2018-01-19T07:19:49.706Z,4.32
2018-01-19T07:20:49.720Z,4.42
2018-01-19T07:21:49.748Z,4.41
2018-01-19T07:22:49.495Z,4.4
2018-01-19T07:23:49.769Z,4.42
2018-01-19T07:24:49.963Z,4.49
2018-01-19T07:25:49.799Z,4.38
2018-01-19T07:26:50.054Z,4.42
2018-01-19T07:27:50.069Z,4.49
2018-01-19T07:28:49.576Z,4.5
2018-01-19T07:29:49.839Z,4.52
2018-01-19T07:30:50.121Z,4.6
2018-01-19T07:31:49.867Z,4.49
2018-01-19T07:32:49.883Z,4.45
2018-01-19T07:33:49.892Z,4.38
2018-01-19T07:34:49.908Z,4.28
2018-01-19T07:35:50.173Z,4.37
2018-01-19T07:36:49.684Z,4.31
2018-01-19T07:37:49.951Z,4.32
2018-01-19T07:38:49.964Z,4.22
2018-01-19T07:39:50.027Z,4.32
2018-01-19T07:40:50.239Z,4.38
2018-01-19T07:41:50.004Z,4.31
2018-01-19T07:42:50.273Z,4.37
2018-01-19T07:43:50.028Z,4.41
2018-01-19T07:44:49.840Z,4.31
2018-01-19T07:45:50.057Z,4.2
2018-01-19T07:46:50.068Z,4.3
2018-01-19T07:47:50.086Z,4.24
2018-01-19T07:48:50.095Z,4.34
2018-01-19T07:49:50.371Z,4.38
2018-01-19T07:50:50.373Z,4.37
2018-01-19T07:51:49.882Z,4.4
2018-01-19T07:52:50.151Z,4.41
2018-01-19T07:53:50.418Z,4.4
2018-01-19T07:54:50.236Z,4.48
2018-01-19T07:55:50.192Z,4.41
2018-01-19T07:56:50.199Z,4.34
2018-01-19T07:57:50.466Z,4.37
2018-01-19T07:58:50.533Z,4.4
2018-01-19T07:59:50.499Z,4.37
2018-01-19T08:00:50.508Z,4.49
2018-01-19T08:01:50.523Z,4.44
2018-01-19T08:02:50.536Z,4.34
2018-01-19T08:03:50.301Z,4.45
2018-01-19T08:04:50.322Z,4.37
2018-01-19T08:05:50.324Z,4.49
2018-01-19T08:06:50.087Z,4.5
2018-01-19T08:07:50.101Z,4.37
2018-01-19T08:08:50.666Z,4.42
2018-01-19T08:09:50.433Z,4.4
2018-01-19T08:10:50.394Z,4.45
2018-01-19T08:11:50.660Z,4.48
2018-01-19T08:12:50.676Z,4.59
2018-01-19T08:13:50.432Z,4.58
2018-01-19T08:14:50.698Z,4.48
2018-01-19T08:15:50.713Z,4.5
2018-01-19T08:16:50.725Z,4.48
2018-01-19T08:17:50.742Z,4.52
2018-01-19T08:18:50.501Z,4.49
2018-01-19T08:19:50.512Z,4.5
2018-01-19T08:20:50.786Z,4.45
2018-01-19T08:21:50.539Z,4.5
2018-01-19T08:22:50.553Z,4.49
2018-01-19T08:23:50.322Z,4.53
2018-01-19T08:24:50.653Z,4.53
2018-01-19T08:25:50.600Z,4.62
2018-01-19T08:26:50.612Z,4.7
2018-01-19T08:27:50.622Z,4.77
2018-01-19T08:28:50.890Z,4.77
2018-01-19T08:29:50.397Z,4.9
2018-01-19T08:30:50.913Z,4.93
2018-01-19T08:31:50.677Z,5.07
2018-01-19T08:32:50.944Z,5.08
2018-01-19T08:33:50.715Z,5.1
2018-01-19T08:34:50.962Z,4.96
2018-01-19T08:35:50.978Z,5.05
2018-01-19T08:36:50.492Z,4.96
2018-01-19T08:37:50.758Z,4.92
2018-01-19T08:38:50.773Z,4.86
2018-01-19T08:39:50.833Z,4.62
2018-01-19T08:40:50.550Z,4.6
2018-01-19T08:41:50.819Z,4.48
2018-01-19T08:42:50.830Z,4.45
2018-01-19T08:43:50.844Z,4.5
2018-01-19T08:44:50.859Z,4.52
2018-01-19T08:45:50.875Z,4.6
2018-01-19T08:46:50.884Z,4.62
2018-01-19T08:47:50.898Z,4.7
2018-01-19T08:48:51.174Z,4.77
2018-01-19T08:49:50.925Z,4.75
2018-01-19T08:50:50.939Z,4.62
2018-01-19T08:51:51.052Z,4.71
2018-01-19T08:52:50.974Z,4.71
2018-01-19T08:53:51.036Z,4.67
2018-01-19T08:54:51.044Z,4.8
2018-01-19T08:55:51.010Z,4.87
2018-01-19T08:56:50.768Z,4.93
2018-01-19T08:57:51.034Z,4.93
2018-01-19T08:58:51.306Z,4.99
2018-01-19T08:59:51.311Z,4.86
2018-01-19T09:00:51.077Z,4.68
2018-01-19T09:01:51.356Z,4.84
2018-01-19T09:02:51.108Z,4.87
2018-01-19T09:03:51.375Z,5.02
2018-01-19T09:04:51.139Z,5
2018-01-19T09:05:51.403Z,5.11
2018-01-19T09:06:51.227Z,4.99
2018-01-19T09:07:51.434Z,5.11
2018-01-19T09:08:51.452Z,4.94
2018-01-19T09:09:51.007Z,4.7
2018-01-19T09:10:51.475Z,4.82
2018-01-19T09:11:50.987Z,4.73
2018-01-19T09:12:51.617Z,4.87
2018-01-19T09:13:51.277Z,4.92
2018-01-19T09:14:51.536Z,4.93
2018-01-19T09:15:51.297Z,5.08
2018-01-19T09:16:51.309Z,5.26
2018-01-19T09:17:51.581Z,5.28
2018-01-19T09:18:51.336Z,5.39
2018-01-19T09:19:51.354Z,5.23
2018-01-19T09:20:51.368Z,5.21
2018-01-19T09:21:51.386Z,5.35
2018-01-19T09:22:51.394Z,5.41
2018-01-19T09:23:51.411Z,5.47
2018-01-19T09:24:51.222Z,5.71
2018-01-19T09:25:51.689Z,5.65
2018-01-19T09:26:51.452Z,5.69
2018-01-19T09:27:51.466Z,5.68
2018-01-19T09:28:51.733Z,5.64
2018-01-19T09:29:51.249Z,5.47
2018-01-19T09:30:51.768Z,5.54
2018-01-19T09:31:51.273Z,5.44
2018-01-19T09:32:51.539Z,5.65
2018-01-19T09:33:51.804Z,5.69
2018-01-19T09:34:51.316Z,5.76
2018-01-19T09:35:51.834Z,5.83
2018-01-19T09:36:51.347Z,5.76
2018-01-19T09:37:51.614Z,5.71
2018-01-19T09:38:51.915Z,5.75
2018-01-19T09:39:51.954Z,6.01
2018-01-19T09:40:51.407Z,5.98
2018-01-19T09:41:51.674Z,5.9
2018-01-19T09:42:51.979Z,5.91
2018-01-19T09:43:51.703Z,5.91
2018-01-19T09:44:51.718Z,5.91
2018-01-19T09:45:51.480Z,5.65
2018-01-19T09:46:51.999Z,5.62
2018-01-19T09:47:51.763Z,5.72
2018-01-19T09:48:51.780Z,5.64
2018-01-19T09:49:51.806Z,5.54
2018-01-19T09:50:51.809Z,5.39
2018-01-19T09:51:52.074Z,5.5
2018-01-19T09:52:51.855Z,5.53
2018-01-19T09:53:52.107Z,5.53
2018-01-19T09:54:51.919Z,5.47
2018-01-19T09:55:51.633Z,5.64
2018-01-19T09:56:51.898Z,5.76
2018-01-19T09:57:51.916Z,5.9
2018-01-19T09:58:51.946Z,6.01
2018-01-19T09:59:52.205Z,5.91
2018-01-19T10:00:52.250Z,5.83
2018-01-19T10:01:52.228Z,5.69
2018-01-19T10:02:51.741Z,5.68
2018-01-19T10:03:51.758Z,5.72
2018-01-19T10:04:51.789Z,5.68
2018-01-19T10:05:52.050Z,5.53
2018-01-19T10:06:52.055Z,5.62
2018-01-19T10:07:52.079Z,5.66
2018-01-19T10:08:51.836Z,5.64
2018-01-19T10:09:52.404Z,5.71
2018-01-19T10:10:51.868Z,5.84
2018-01-19T10:11:51.881Z,6.02
2018-01-19T10:12:52.406Z,6.09
2018-01-19T10:13:51.911Z,6.04
2018-01-19T10:14:52.430Z,6.27
2018-01-19T10:15:52.447Z,6.26
2018-01-19T10:16:52.463Z,6.41
2018-01-19T10:17:52.478Z,6.56
2018-01-19T10:18:51.993Z,6.56
2018-01-19T10:19:52.512Z,6.79
2018-01-19T10:20:52.280Z,7.06
2018-01-19T10:21:52.550Z,7.28
2018-01-19T10:22:52.061Z,7.42
2018-01-19T10:23:52.585Z,7.25
2018-01-19T10:24:52.662Z,7.43
2018-01-19T10:25:52.118Z,7.48
2018-01-19T10:26:52.643Z,7.42
2018-01-19T10:27:52.460Z,7.75
2018-01-19T10:28:52.728Z,7.58
2018-01-19T10:29:52.444Z,7.73
2018-01-19T10:30:52.716Z,7.9
2018-01-19T10:31:52.741Z,7.82
2018-01-19T10:32:52.504Z,7.82
2018-01-19T10:33:52.527Z,7.69
2018-01-19T10:34:52.540Z,7.7
2018-01-19T10:35:52.821Z,7.82
2018-01-19T10:36:52.584Z,7.82
2018-01-19T10:37:52.610Z,7.79
2018-01-19T10:38:52.877Z,7.67
2018-01-19T10:39:52.390Z,7.83
2018-01-19T10:40:52.657Z,7.7
2018-01-19T10:41:52.934Z,7.6
2018-01-19T10:42:52.494Z,7.63
2018-01-19T10:43:52.969Z,7.72
2018-01-19T10:44:53.146Z,7.75
2018-01-19T10:45:53.005Z,7.7
2018-01-19T10:46:53.026Z,7.51
2018-01-19T10:47:52.788Z,7.6
2018-01-19T10:48:52.553Z,7.63
2018-01-19T10:49:52.824Z,7.58
2018-01-19T10:50:52.841Z,7.6
2018-01-19T10:51:52.607Z,7.29
2018-01-19T10:52:52.629Z,7.21
2018-01-19T10:53:52.894Z,7.28
2018-01-19T10:54:52.913Z,7.24
2018-01-19T10:55:52.926Z,7.06
2018-01-19T10:56:52.964Z,7.05
2018-01-19T10:57:53.010Z,6.92
2018-01-19T10:58:53.239Z,6.87
2018-01-19T10:59:52.999Z,6.87
2018-01-19T11:00:53.266Z,6.81
2018-01-19T11:01:53.030Z,6.75
2018-01-19T11:02:52.796Z,6.66
2018-01-19T11:03:53.066Z,6.51
2018-01-19T11:04:53.333Z,6.62
2018-01-19T11:05:53.350Z,6.57
2018-01-19T11:06:53.129Z,6.59
2018-01-19T11:07:53.381Z,6.49
2018-01-19T11:08:53.151Z,6.56
2018-01-19T11:09:53.165Z,6.54
2018-01-19T11:10:53.428Z,6.74
2018-01-19T11:11:53.199Z,6.87
2018-01-19T11:12:53.464Z,6.82
2018-01-19T11:13:53.526Z,6.92
2018-01-19T11:14:52.990Z,6.72
2018-01-19T11:15:53.515Z,6.51
2018-01-19T11:16:53.277Z,6.49
2018-01-19T11:17:53.292Z,6.52
2018-01-19T11:18:53.570Z,6.51
2018-01-19T11:19:53.072Z,6.44
2018-01-19T11:20:53.345Z,6.49
2018-01-19T11:21:53.560Z,6.51
2018-01-19T11:22:53.375Z,6.45
2018-01-19T11:23:53.136Z,6.54
2018-01-19T11:24:53.156Z,6.59
2018-01-19T11:25:53.680Z,6.48
2018-01-19T11:26:53.440Z,6.67
2018-01-19T11:27:53.708Z,6.95
2018-01-19T11:28:53.782Z,7.29
2018-01-19T11:29:53.486Z,7.36
2018-01-19T11:30:53.252Z,7.63
2018-01-19T11:31:53.775Z,8.03
2018-01-19T11:32:53.540Z,8.19
2018-01-19T11:33:53.308Z,8.06
2018-01-19T11:34:53.581Z,7.85
2018-01-19T11:35:53.348Z,8.15
2018-01-19T11:36:53.626Z,8.56
2018-01-19T11:37:53.890Z,9.03
2018-01-19T11:38:53.411Z,9.23
2018-01-19T11:39:53.433Z,9.61
2018-01-19T11:40:53.763Z,9.84
2018-01-19T11:41:53.476Z,9.68
2018-01-19T11:42:54.000Z,9.74
2018-01-19T11:43:54.075Z,10.04
2018-01-19T11:44:53.546Z,10.05
2018-01-19T11:45:53.821Z,9.86
2018-01-19T11:46:53.849Z,9.91
2018-01-19T11:47:53.868Z,9.91
2018-01-19T11:48:53.894Z,9.84
2018-01-19T11:49:53.964Z,10.07
2018-01-19T11:50:53.943Z,10.49
2018-01-19T11:51:53.964Z,10.44
2018-01-19T11:52:54.240Z,10.04
2018-01-19T11:53:54.012Z,9.76
2018-01-19T11:54:53.785Z,9.79
2018-01-19T11:55:54.079Z,9.89
2018-01-19T11:56:53.847Z,9.92
2018-01-19T11:57:54.108Z,9.87
2018-01-19T11:58:53.886Z,9.64
2018-01-19T11:59:54.310Z,9.39
2018-01-19T12:00:54.183Z,9.84
2018-01-19T12:01:54.206Z,9.87
2018-01-19T12:02:54.236Z,9.92
2018-01-19T12:03:54.004Z,9.89
2018-01-19T12:04:54.024Z,9.99
2018-01-19T12:05:54.050Z,9.91
2018-01-19T12:06:54.332Z,9.82
2018-01-19T12:07:54.097Z,9.43
2018-01-19T12:08:54.371Z,9.32
2018-01-19T12:09:54.398Z,9.72
2018-01-19T12:10:54.169Z,9.91
2018-01-19T12:11:54.194Z,10.2
2018-01-19T12:12:54.216Z,10.67
2018-01-19T12:13:54.242Z,10.46
2018-01-19T12:14:54.311Z,10.31
2018-01-19T12:15:54.541Z,10.31
2018-01-19T12:16:54.309Z,10.49
2018-01-19T12:17:54.583Z,10.07
2018-01-19T12:18:54.352Z,9.65
2018-01-19T12:19:54.880Z,9.74
2018-01-19T12:20:54.656Z,9.72
2018-01-19T12:21:54.933Z,9.68
2018-01-19T12:22:54.960Z,9.8
2018-01-19T12:23:54.722Z,10.04
2018-01-19T12:24:54.742Z,10.3
2018-01-19T12:25:54.764Z,10.01
2018-01-19T12:26:54.538Z,10.01
2018-01-19T12:27:54.823Z,10.07
2018-01-19T12:28:55.085Z,9.79
2018-01-19T12:29:55.164Z,9.4
2018-01-19T12:30:54.627Z,9.25
2018-01-19T12:31:54.900Z,9.39
2018-01-19T12:32:55.172Z,9.4
2018-01-19T12:33:55.197Z,9.32
2018-01-19T12:34:54.966Z,9.1
2018-01-19T12:35:54.987Z,9.14
2018-01-19T12:36:55.010Z,8.97
2018-01-19T12:37:55.030Z,8.97
2018-01-19T12:38:55.053Z,8.7
2018-01-19T12:39:54.922Z,8.91
2018-01-19T12:40:55.349Z,9.29
2018-01-19T12:41:55.376Z,9.69
2018-01-19T12:42:55.136Z,9.84
2018-01-19T12:43:55.409Z,9.4
2018-01-19T12:44:55.480Z,9.19
2018-01-19T12:45:55.215Z,9.08
2018-01-19T12:46:55.481Z,8.92
2018-01-19T12:47:55.518Z,9.06
2018-01-19T12:48:55.276Z,9.37
2018-01-19T12:49:55.548Z,9.54
2018-01-19T12:50:55.343Z,9.41
2018-01-19T12:51:55.586Z,9.54
2018-01-19T12:52:55.106Z,9.91
2018-01-19T12:53:55.637Z,10.3
2018-01-19T12:54:55.654Z,10.41
2018-01-19T12:55:55.428Z,10.49
2018-01-19T12:56:55.702Z,10.49
2018-01-19T12:57:55.720Z,10.87
2018-01-19T12:58:55.490Z,10.96
2018-01-19T12:59:55.665Z,11.04
2018-01-19T13:00:55.789Z,11.65
2018-01-19T13:01:55.817Z,12.35
2018-01-19T13:02:55.582Z,12.5
2018-01-19T13:03:55.856Z,12.7
2018-01-19T13:04:55.882Z,13.16
2018-01-19T13:05:55.652Z,12.91
2018-01-19T13:06:55.927Z,13.27
2018-01-19T13:07:55.701Z,13.37
2018-01-19T13:08:55.477Z,12.91
2018-01-19T13:09:56.018Z,12.8
2018-01-19T13:10:55.781Z,13.15
2018-01-19T13:11:55.804Z,13.47
2018-01-19T13:12:56.087Z,13.78
2018-01-19T13:13:55.861Z,13.99
2018-01-19T13:14:56.186Z,14.03
2018-01-19T13:15:56.165Z,13.85
2018-01-19T13:16:55.937Z,13.41
2018-01-19T13:17:56.216Z,13.09
2018-01-19T13:18:55.735Z,12.97
2018-01-19T13:19:56.287Z,12.79
2018-01-19T13:20:56.040Z,12.94
2018-01-19T13:21:55.819Z,12.94
2018-01-19T13:22:55.846Z,13.01
2018-01-19T13:23:55.872Z,12.76
2018-01-19T13:24:56.153Z,12.83
2018-01-19T13:25:56.174Z,12.67
2018-01-19T13:26:55.951Z,12.79
2018-01-19T13:27:56.479Z,12.78
2018-01-19T13:28:55.999Z,12.78
2018-01-19T13:29:56.328Z,12.17
2018-01-19T13:30:56.555Z,11.55
2018-01-19T13:31:56.327Z,11.19
2018-01-19T13:32:56.618Z,11.23
2018-01-19T13:33:56.624Z,10.87
2018-01-19T13:34:56.649Z,10.51
2018-01-19T13:35:56.168Z,10.84
2018-01-19T13:36:56.446Z,11.54
2018-01-19T13:37:56.233Z,12.31
2018-01-19T13:38:56.750Z,12.42
2018-01-19T13:39:56.766Z,12.13
2018-01-19T13:40:56.301Z,11.97
2018-01-19T13:41:56.315Z,11.44
2018-01-19T13:42:56.849Z,10.68
2018-01-19T13:43:56.364Z,10.19
2018-01-19T13:44:56.691Z,10.3
2018-01-19T13:45:56.659Z,10.02
2018-01-19T13:46:56.934Z,10.07
2018-01-19T13:47:56.457Z,9.66
2018-01-19T13:48:56.475Z,9.82
2018-01-19T13:49:56.993Z,9.64